^^
Station Historical Data
 
Daily Summary for October 17, 2017 Units:  English    Metric   Both
« Previous Day
Next Day »
Daily Weekly Monthly Yearly Custom
  Current: High: Low: Average:
Temperature: 69.8 °F 71.4 °F 69.6 °F 70.5 °F
Dew Point: 45.7 °F 45.9 °F 43.5 °F 44.8 °F
Humidity: 42 % 42 % 37 % 40 %
Wind Speed: 3.5 mph 4.6 mph 0 mph 2 mph
Wind Gust: 3.5 mph 4.6 mph - -
Wind:NE - - NE
Pressure: 29.9 in 29.9 in 29.9 in -
Precipitation: 0 in      
Historical Graphs
 
 
Tabular Data for October 17, 2017
Time Temperature Dew Point Pressure Wind Wind Speed Wind Gust Humidity Rainfall Rate (Hourly) solar Conditions
00:00 71.4 °F 43.9 °F 29.9 in NE 2.3 mph 2.3 mph 37 % 0 in 0.0 W/m2 CLR
00:05 71.4 °F 44.4 °F 29.9 in NE 1.2 mph 1.2 mph 38 % 0 in 0.0 W/m2 CLR
00:10 71.2 °F 43.5 °F 29.9 in NE 1.2 mph 1.2 mph 37 % 0 in 0.0 W/m2 CLR
00:15 71.1 °F 44.2 °F 29.9 in NE 1.2 mph   38 % 0 in 0.0 W/m2 CLR
00:20 70.9 °F 44.1 °F 29.9 in NE 1.2 mph 1.2 mph 38 % 0 in 0.0 W/m2 CLR
00:25 70.9 °F 44.1 °F 29.9 in NE 1.2 mph 1.2 mph 38 % 0 in 0.0 W/m2 CLR
00:30 70.9 °F 43.9 °F 29.9 in NE 1.2 mph   38 % 0 in 0.0 W/m2 CLR
00:35 70.7 °F 43.9 °F 29.9 in Calm     38 % 0 in 0.0 W/m2 CLR
00:40 70.7 °F 43.9 °F 29.9 in NE 1.2 mph 1.2 mph 38 % 0 in 0.0 W/m2 CLR
00:45 70.5 °F 43.7 °F 29.9 in NE 2.3 mph 2.3 mph 38 % 0 in 0.0 W/m2 CLR
00:50 70.5 °F 44.2 °F 29.9 in NE 1.2 mph 1.2 mph 39 % 0 in 0.0 W/m2 CLR
00:55 70.3 °F 44.2 °F 29.9 in NE 1.2 mph   39 % 0 in 0.0 W/m2 CLR
01:00 70.3 °F 44.2 °F 29.9 in NE 1.2 mph 1.2 mph 39 % 0 in 0.0 W/m2 CLR
01:05 70.3 °F 44.2 °F 29.9 in NE 1.2 mph   39 % 0 in 0.0 W/m2 CLR
01:10 70.3 °F 44.2 °F 29.9 in NE 2.3 mph 2.3 mph 39 % 0 in 0.0 W/m2 CLR
01:11 70.3 °F 44.2 °F 29.9 in NE 2.3 mph 2.3 mph 39 % 0 in 0.0 W/m2 CLR
01:16 70.3 °F 44.2 °F 29.9 in East 1.2 mph 1.2 mph 39 % 0 in 0.0 W/m2 CLR
01:21 70.3 °F 44.2 °F 29.9 in ENE 1.2 mph 1.2 mph 39 % 0 in 0.0 W/m2 CLR
01:22 70.3 °F 44.2 °F 29.9 in ENE 1.2 mph 1.2 mph 39 % 0 in 0.0 W/m2 CLR
01:27 70.3 °F 44.2 °F 29.9 in NNE 2.3 mph 2.3 mph 39 % 0 in 0.0 W/m2 CLR
01:32 70.5 °F 44.4 °F 29.9 in SE 3.5 mph 3.5 mph 39 % 0 in 0.0 W/m2 CLR
01:37 70.9 °F 45.3 °F 29.9 in NE 2.3 mph 2.3 mph 40 % 0 in 0.0 W/m2 CLR
01:42 70.9 °F 44.6 °F 29.9 in NE 2.3 mph 2.3 mph 39 % 0 in 0.0 W/m2 CLR
01:47 70.9 °F 44.6 °F 29.9 in NE 2.3 mph 2.3 mph 39 % 0 in 0.0 W/m2 CLR
01:52 70.9 °F 44.6 °F 29.9 in NE 2.3 mph 2.3 mph 39 % 0 in 0.0 W/m2 CLR
01:57 70.9 °F 44.6 °F 29.9 in NE 1.2 mph 1.2 mph 39 % 0 in 0.0 W/m2 CLR
02:02 70.9 °F 44.6 °F 29.9 in NE 1.2 mph   39 % 0 in 0.0 W/m2 CLR
02:07 70.9 °F 45.3 °F 29.9 in ENE 1.2 mph 1.2 mph 40 % 0 in 0.0 W/m2 CLR
02:12 70.9 °F 45.3 °F 29.9 in ENE 2.3 mph 2.3 mph 40 % 0 in 0.0 W/m2 CLR
02:17 70.9 °F 45.3 °F 29.9 in ENE 1 mph 1 mph 40 % 0 in 0.0 W/m2 CLR
02:22 70.9 °F 45.3 °F 29.9 in ENE 2 mph 2 mph 40 % 0 in 0.0 W/m2 CLR
02:27 70.9 °F 45.3 °F 29.9 in NE 3 mph 3 mph 40 % 0 in 0.0 W/m2 CLR
02:37 70.9 °F 45.3 °F 29.9 in NNE 2.3 mph 2.3 mph 40 % 0 in 0.0 W/m2 CLR
02:42 70.9 °F 45.3 °F 29.9 in NNE 1.2 mph 1.2 mph 40 % 0 in 0.0 W/m2 CLR
02:47 70.5 °F 45.7 °F 29.9 in NNE 2.3 mph 2.3 mph 41 % 0 in 0.0 W/m2 CLR
02:52 70.5 °F 45.7 °F 29.9 in NE 2.3 mph 2.3 mph 41 % 0 in 0.0 W/m2 CLR
02:57 70.3 °F 45.7 °F 29.9 in NE 1.2 mph   41 % 0 in 0.0 W/m2 CLR
03:02 70.3 °F 45.5 °F 29.9 in NE 3.5 mph 3.5 mph 41 % 0 in 0.0 W/m2 CLR
03:07 70.2 °F 45.3 °F 29.9 in ENE 4.6 mph 4.6 mph 41 % 0 in 0.0 W/m2 CLR
03:12 70.2 °F 45.3 °F 29.9 in NNE 2.3 mph 2.3 mph 41 % 0 in 0.0 W/m2 CLR
03:18 70.2 °F 45.3 °F 29.9 in NE 2.3 mph 2.3 mph 41 % 0 in 0.0 W/m2 CLR
03:23 70 °F 45.1 °F 29.9 in NE 3.5 mph 3.5 mph 41 % 0 in 0.0 W/m2 CLR
03:28 70 °F 45.9 °F 29.9 in NE 2.3 mph 2.3 mph 42 % 0 in 0.0 W/m2 CLR
03:33 70 °F 45.9 °F 29.9 in NE 3.5 mph 3.5 mph 42 % 0 in 0.0 W/m2 CLR
03:38 69.8 °F 45.7 °F 29.9 in NNE 2.3 mph 2.3 mph 42 % 0 in 0.0 W/m2 CLR
03:43 69.8 °F 45.7 °F 29.9 in NE 2.3 mph 2.3 mph 42 % 0 in 0.0 W/m2 CLR
03:48 69.6 °F 45.7 °F 29.9 in NE 2.3 mph 2.3 mph 42 % 0 in 0.0 W/m2 CLR
03:53 69.6 °F 45.7 °F 29.9 in NE 2.3 mph 2.3 mph 42 % 0 in 0.0 W/m2 CLR
03:58 69.6 °F 45.7 °F 29.9 in NNE 2.3 mph 2.3 mph 42 % 0 in 0.0 W/m2 CLR
04:03 69.8 °F 45.7 °F 29.9 in NE 3.5 mph 3.5 mph 42 % 0 in 0.0 W/m2 CLR
Countryside Manor, Tucson, AZ, USA
Compliments of Weather Underground - 3.25 mb